createdAt,value
2018-03-27T00:00:18.376Z,4.70
2018-03-27T00:02:49.380Z,4.70
2018-03-27T00:05:19.972Z,5.60
2018-03-27T00:07:50.984Z,4.60
2018-03-27T00:10:21.812Z,4.60
2018-03-27T00:12:53.016Z,4.60
2018-03-27T00:15:24.219Z,4.50
2018-03-27T00:17:55.177Z,4.40
2018-03-27T00:20:25.893Z,4.50
2018-03-27T00:22:56.157Z,4.40
2018-03-27T00:25:26.902Z,4.50
2018-03-27T00:28:08.387Z,4.50
2018-03-27T00:30:49.824Z,4.40
2018-03-27T00:33:31.709Z,4.40
2018-03-27T00:36:13.284Z,4.40
2018-03-27T00:38:55.081Z,4.40
2018-03-27T00:41:34.335Z,4.50
2018-03-27T00:44:05.910Z,4.40
2018-03-27T00:46:36.821Z,4.60
2018-03-27T00:49:07.944Z,4.60
2018-03-27T00:51:39.268Z,4.60
2018-03-27T00:54:10.791Z,4.50
2018-03-27T00:56:42.833Z,4.40
2018-03-27T00:59:13.983Z,4.50
2018-03-27T01:01:45.550Z,4.40
2018-03-27T01:04:16.368Z,4.40
2018-03-27T01:06:46.905Z,4.30
2018-03-27T01:09:18.227Z,4.30
2018-03-27T01:11:49.195Z,4.30
2018-03-27T01:14:20.151Z,4.30
2018-03-27T01:16:51.165Z,4.20
2018-03-27T01:19:22.218Z,4.30
2018-03-27T01:21:53.263Z,4.20
2018-03-27T01:24:24.827Z,4.10
2018-03-27T01:26:55.659Z,4.20
2018-03-27T01:29:26.850Z,4.20
2018-03-27T01:31:57.962Z,4.20
2018-03-27T01:34:28.869Z,4.10
2018-03-27T01:36:59.864Z,4.10
2018-03-27T01:39:31.073Z,4.00
2018-03-27T01:42:02.258Z,4.00
2018-03-27T01:44:34.454Z,3.80
2018-03-27T01:47:05.929Z,3.90
2018-03-27T01:49:37.070Z,3.80
2018-03-27T01:52:08.186Z,3.90
2018-03-27T01:54:39.513Z,3.90
2018-03-27T01:57:10.446Z,3.90
2018-03-27T01:59:41.223Z,4.00
2018-03-27T02:02:12.988Z,4.00
2018-03-27T02:04:44.564Z,4.10
2018-03-27T02:07:15.941Z,3.90
2018-03-27T02:09:47.304Z,4.00
2018-03-27T02:12:23.218Z,3.90
2018-03-27T02:14:59.367Z,3.80
2018-03-27T02:17:35.318Z,3.80
2018-03-27T02:20:11.489Z,3.70
2018-03-27T02:22:43.250Z,3.70
2018-03-27T02:25:14.880Z,3.70
2018-03-27T02:27:46.091Z,3.50
2018-03-27T02:30:16.871Z,3.60
2018-03-27T02:32:48.046Z,3.50
2018-03-27T02:35:20.460Z,3.30
2018-03-27T02:37:55.763Z,3.40
2018-03-27T02:40:26.712Z,3.20
2018-03-27T02:42:57.924Z,1.30
2018-03-27T02:45:28.892Z,3.20
2018-03-27T02:47:59.985Z,3.20
2018-03-27T02:50:30.724Z,3.20
2018-03-27T02:53:01.778Z,3.20
2018-03-27T02:55:33.886Z,3.20
2018-03-27T02:58:05.027Z,3.10
2018-03-27T03:00:37.156Z,3.20
2018-03-27T03:03:08.701Z,3.30
2018-03-27T03:05:40.092Z,3.30
2018-03-27T03:08:11.842Z,3.40
2018-03-27T03:10:43.477Z,3.40
2018-03-27T03:13:14.532Z,3.50
2018-03-27T03:15:46.173Z,3.50
2018-03-27T03:18:17.968Z,3.50
2018-03-27T03:20:49.585Z,3.50
2018-03-27T03:23:20.600Z,3.50
2018-03-27T03:25:51.721Z,3.50
2018-03-27T03:28:23.131Z,3.60
2018-03-27T03:30:53.997Z,3.70
2018-03-27T03:33:24.978Z,3.80
2018-03-27T03:35:57.060Z,3.70
2018-03-27T03:38:28.501Z,3.70
2018-03-27T03:40:59.727Z,3.60
2018-03-27T03:43:30.698Z,3.70
2018-03-27T03:46:02.525Z,3.70
2018-03-27T03:48:33.791Z,3.70
2018-03-27T03:51:05.191Z,3.70
2018-03-27T03:53:37.696Z,3.70
2018-03-27T03:56:09.670Z,3.70
2018-03-27T03:58:40.762Z,3.70
2018-03-27T04:01:11.679Z,3.60
2018-03-27T04:03:43.115Z,3.60
2018-03-27T04:06:13.964Z,3.50
2018-03-27T04:08:44.934Z,3.30
2018-03-27T04:11:16.699Z,3.30
2018-03-27T04:13:49.659Z,3.30
2018-03-27T04:16:20.716Z,3.20
2018-03-27T04:18:52.001Z,3.20
2018-03-27T04:21:23.466Z,3.10
2018-03-27T04:23:54.799Z,3.10
2018-03-27T04:26:27.704Z,3.10
2018-03-27T04:28:59.550Z,3.10
2018-03-27T04:31:30.783Z,3.10
2018-03-27T04:34:02.121Z,3.00
2018-03-27T04:36:33.924Z,3.00
2018-03-27T04:39:05.960Z,2.90
2018-03-27T04:41:38.155Z,2.90
2018-03-27T04:44:09.527Z,2.90
2018-03-27T04:46:40.475Z,3.00
2018-03-27T04:49:12.489Z,3.00
2018-03-27T04:51:43.981Z,2.90
2018-03-27T04:54:15.391Z,2.90
2018-03-27T04:56:46.679Z,2.80
2018-03-27T04:59:17.541Z,2.60
2018-03-27T05:01:48.851Z,2.70
2018-03-27T05:04:19.556Z,2.70
2018-03-27T05:06:50.955Z,2.60
2018-03-27T05:09:22.751Z,2.50
2018-03-27T05:11:54.190Z,2.50
2018-03-27T05:14:25.486Z,2.60
2018-03-27T05:16:56.828Z,2.60
2018-03-27T05:19:28.133Z,2.70
2018-03-27T05:21:59.891Z,2.50
2018-03-27T05:24:30.749Z,2.60
2018-03-27T05:27:01.439Z,2.60
2018-03-27T05:29:32.553Z,-0.10
2018-03-27T05:32:04.271Z,4.30
2018-03-27T05:34:35.267Z,2.70
2018-03-27T05:37:06.887Z,1.40
2018-03-27T05:41:06.856Z,2.70
2018-03-27T05:43:38.086Z,2.70
2018-03-27T05:46:09.918Z,3.00
2018-03-27T05:48:41.015Z,3.10
2018-03-27T05:51:11.613Z,3.10
2018-03-27T05:53:42.384Z,3.20
2018-03-27T05:56:13.033Z,3.20
2018-03-27T05:58:43.990Z,3.20
2018-03-27T06:01:15.147Z,3.30
2018-03-27T06:03:46.903Z,3.30
2018-03-27T06:06:17.378Z,3.30
2018-03-27T06:08:48.502Z,3.30
2018-03-27T06:11:19.781Z,3.40
2018-03-27T06:13:50.695Z,3.50
2018-03-27T06:19:03.678Z,3.80
2018-03-27T06:21:34.472Z,4.10
2018-03-27T06:24:05.591Z,4.30
2018-03-27T06:26:37.278Z,4.80
2018-03-27T06:29:08.633Z,5.50
2018-03-27T06:31:39.631Z,6.20
2018-03-27T06:34:10.075Z,7.00
2018-03-27T06:36:40.896Z,8.40
2018-03-27T06:39:11.979Z,9.20
2018-03-27T06:41:42.415Z,9.40
2018-03-27T06:44:16.064Z,10.00
2018-03-27T06:46:46.964Z,10.80
2018-03-27T06:49:17.677Z,11.20
2018-03-27T06:51:48.361Z,10.70
2018-03-27T06:54:19.673Z,12.10
2018-03-27T06:56:50.210Z,11.50
2018-03-27T06:59:20.848Z,11.10
2018-03-27T07:01:51.647Z,12.40
2018-03-27T07:04:22.241Z,13.80
2018-03-27T07:06:54.330Z,14.70
2018-03-27T07:09:24.465Z,14.80
2018-03-27T07:11:54.340Z,15.50
2018-03-27T07:14:26.367Z,15.00
2018-03-27T07:16:56.699Z,14.70
2018-03-27T07:19:27.427Z,13.80
2018-03-27T07:21:58.690Z,10.10
2018-03-27T07:24:29.277Z,11.70
2018-03-27T07:26:59.853Z,11.10
2018-03-27T07:29:38.762Z,10.90
2018-03-27T07:32:17.174Z,12.00
2018-03-27T07:34:48.458Z,13.30
2018-03-27T07:37:19.173Z,13.10
2018-03-27T07:39:50.214Z,12.20
2018-03-27T07:42:21.271Z,11.30
2018-03-27T07:44:53.233Z,10.60
2018-03-27T07:47:23.969Z,10.10
2018-03-27T07:49:54.921Z,9.90
2018-03-27T07:52:25.438Z,10.30
2018-03-27T07:54:56.211Z,11.50
2018-03-27T07:57:26.845Z,12.20
2018-03-27T08:00:01.449Z,12.30
2018-03-27T08:02:34.505Z,12.20
2018-03-27T08:05:05.336Z,12.10
2018-03-27T08:07:36.299Z,12.30
2018-03-27T08:10:10.087Z,13.20
2018-03-27T08:12:40.027Z,14.50
2018-03-27T08:15:10.685Z,14.70
2018-03-27T08:17:41.702Z,16.30
2018-03-27T08:20:12.184Z,18.30
2018-03-27T08:22:42.407Z,16.80
2018-03-27T08:25:13.000Z,18.20
2018-03-27T08:27:42.780Z,18.20
2018-03-27T08:30:13.407Z,19.40
2018-03-27T08:32:43.305Z,20.40
2018-03-27T08:38:13.269Z,22.40
2018-03-27T08:43:28.774Z,21.60
2018-03-27T08:46:00.045Z,21.10
2018-03-27T08:48:30.297Z,21.10
2018-03-27T08:51:00.426Z,19.20
2018-03-27T08:53:32.255Z,17.80
2018-03-27T08:56:02.873Z,16.70
2018-03-27T08:58:33.444Z,15.70
2018-03-27T09:01:07.308Z,14.80
2018-03-27T09:03:38.338Z,14.20
2018-03-27T09:06:09.553Z,13.90
2018-03-27T09:08:40.223Z,13.50
2018-03-27T09:11:11.182Z,13.40
2018-03-27T09:13:42.090Z,13.60
2018-03-27T09:16:12.584Z,13.70
2018-03-27T09:18:43.419Z,13.60
2018-03-27T09:21:14.084Z,13.90
2018-03-27T09:23:45.023Z,14.40
2018-03-27T09:26:46.434Z,15.10
2018-03-27T09:29:17.703Z,15.50
2018-03-27T09:31:48.953Z,15.00
2018-03-27T09:34:20.787Z,14.20
2018-03-27T09:36:51.566Z,13.50
2018-03-27T09:39:22.674Z,13.60
2018-03-27T09:41:55.434Z,13.70
2018-03-27T09:44:26.731Z,13.60
2018-03-27T09:46:57.036Z,13.40
2018-03-27T09:49:27.664Z,13.20
2018-03-27T09:51:58.031Z,12.70
2018-03-27T09:54:28.454Z,12.40
2018-03-27T09:56:58.780Z,12.20
2018-03-27T09:59:46.917Z,12.10
2018-03-27T10:02:23.020Z,12.60
2018-03-27T10:04:53.789Z,12.70
2018-03-27T10:07:24.122Z,11.20
2018-03-27T10:09:54.866Z,11.80
2018-03-27T10:12:32.590Z,11.60
2018-03-27T10:15:03.562Z,11.40
2018-03-27T10:17:33.832Z,11.30
2018-03-27T10:20:04.215Z,11.30
2018-03-27T10:22:34.741Z,11.40
2018-03-27T10:25:05.583Z,11.70
2018-03-27T10:27:36.065Z,11.90
2018-03-27T10:30:06.788Z,12.10
2018-03-27T10:32:37.238Z,12.80
2018-03-27T10:35:07.811Z,13.30
2018-03-27T10:37:46.876Z,13.50
2018-03-27T10:40:19.405Z,13.50
2018-03-27T10:42:51.148Z,13.20
2018-03-27T10:45:25.716Z,12.60
2018-03-27T10:48:00.307Z,12.10
2018-03-27T10:50:30.912Z,11.70
2018-03-27T10:53:02.382Z,11.60
2018-03-27T10:55:32.775Z,11.50
2018-03-27T10:58:03.307Z,11.50
2018-03-27T11:00:33.909Z,11.40
2018-03-27T11:03:04.705Z,11.50
2018-03-27T11:05:35.085Z,11.70
2018-03-27T11:08:05.404Z,12.00
2018-03-27T11:10:38.356Z,12.20
2018-03-27T11:13:08.756Z,12.50
2018-03-27T11:15:47.006Z,12.90
2018-03-27T11:18:23.192Z,13.40
2018-03-27T11:20:53.890Z,13.60
2018-03-27T11:23:24.149Z,14.00
2018-03-27T11:25:56.654Z,14.20
2018-03-27T11:28:27.267Z,14.10
2018-03-27T11:30:57.947Z,14.00
2018-03-27T11:33:48.741Z,13.80
2018-03-27T11:36:20.426Z,13.70
2018-03-27T11:38:52.299Z,13.90
2018-03-27T11:41:24.049Z,16.20
2018-03-27T11:43:54.568Z,13.60
2018-03-27T11:46:24.636Z,15.30
2018-03-27T11:48:55.037Z,15.50
2018-03-27T11:51:29.111Z,16.00
2018-03-27T11:53:59.681Z,16.50
2018-03-27T11:56:30.432Z,16.80
2018-03-27T11:59:00.912Z,17.30
2018-03-27T12:01:31.510Z,17.30
2018-03-27T12:04:02.125Z,17.50
2018-03-27T12:06:32.565Z,17.80
2018-03-27T12:09:03.102Z,17.90
2018-03-27T12:11:33.645Z,17.30
2018-03-27T12:14:04.088Z,16.50
2018-03-27T12:16:34.860Z,16.30
2018-03-27T12:19:05.537Z,16.10
2018-03-27T12:21:36.066Z,15.60
2018-03-27T12:24:06.588Z,15.90
2018-03-27T12:26:48.883Z,16.20
2018-03-27T12:29:22.264Z,16.50
2018-03-27T12:31:52.967Z,13.10
2018-03-27T12:34:23.505Z,15.50
2018-03-27T12:36:53.625Z,15.30
2018-03-27T12:39:24.246Z,15.60
2018-03-27T12:41:54.792Z,18.60
2018-03-27T12:44:25.334Z,16.20
2018-03-27T12:46:56.287Z,16.20
2018-03-27T12:49:26.719Z,15.80
2018-03-27T12:51:57.611Z,15.50
2018-03-27T12:54:28.126Z,15.10
2018-03-27T12:57:03.486Z,14.80
2018-03-27T12:59:33.844Z,14.50
2018-03-27T13:02:04.409Z,14.10
2018-03-27T13:04:34.968Z,13.60
2018-03-27T13:07:05.451Z,13.40
2018-03-27T13:09:54.928Z,13.10
2018-03-27T13:18:23.439Z,12.40
2018-03-27T13:20:54.072Z,12.40
2018-03-27T13:23:24.817Z,12.10
2018-03-27T13:25:56.379Z,12.10
2018-03-27T13:28:27.262Z,11.90
2018-03-27T13:30:57.820Z,11.60
2018-03-27T13:33:29.451Z,11.70
2018-03-27T13:36:01.022Z,10.20
2018-03-27T13:38:31.520Z,11.50
2018-03-27T13:41:07.208Z,11.40
2018-03-27T13:43:41.884Z,13.00
2018-03-27T13:46:12.589Z,11.50
2018-03-27T13:48:43.214Z,11.60
2018-03-27T13:51:20.598Z,11.60
2018-03-27T13:53:51.441Z,11.50
2018-03-27T13:56:21.849Z,11.50
2018-03-27T13:58:52.834Z,11.50
2018-03-27T14:01:23.452Z,10.10
2018-03-27T14:03:53.919Z,11.50
2018-03-27T14:06:24.441Z,11.50
2018-03-27T14:08:55.238Z,11.40
2018-03-27T14:11:25.655Z,11.30
2018-03-27T14:13:56.368Z,11.20
2018-03-27T14:16:26.793Z,11.20
2018-03-27T14:18:57.586Z,11.10
2018-03-27T14:21:28.032Z,11.10
2018-03-27T14:24:02.199Z,11.10
2018-03-27T14:26:32.378Z,11.00
2018-03-27T14:29:02.954Z,11.20
2018-03-27T14:31:33.439Z,11.30
2018-03-27T14:34:03.581Z,11.30
2018-03-27T14:36:33.962Z,11.50
2018-03-27T14:39:05.945Z,11.50
2018-03-27T14:44:32.072Z,11.60
2018-03-27T14:47:02.515Z,12.00
2018-03-27T14:49:32.970Z,12.00
2018-03-27T14:52:03.376Z,11.90
2018-03-27T14:54:35.317Z,12.00
2018-03-27T14:57:06.114Z,12.20
2018-03-27T14:59:39.708Z,12.30
2018-03-27T15:02:10.203Z,12.30
2018-03-27T15:04:40.748Z,11.00
2018-03-27T15:07:11.299Z,12.20
2018-03-27T15:09:41.417Z,12.10
2018-03-27T15:12:11.847Z,12.10
2018-03-27T15:14:42.375Z,11.80
2018-03-27T15:17:12.803Z,11.60
2018-03-27T15:19:43.634Z,11.30
2018-03-27T15:22:14.157Z,11.00
2018-03-27T15:24:44.875Z,10.70
2018-03-27T15:27:15.643Z,10.20
2018-03-27T15:29:46.473Z,9.90
2018-03-27T15:32:16.936Z,9.80
2018-03-27T15:34:52.090Z,9.80
2018-03-27T15:37:22.640Z,9.70
2018-03-27T15:39:53.227Z,9.80
2018-03-27T15:42:25.739Z,9.80
2018-03-27T15:44:56.396Z,9.90
2018-03-27T15:47:26.814Z,9.70
2018-03-27T15:49:57.770Z,9.80
2018-03-27T15:52:28.267Z,9.70
2018-03-27T15:54:59.045Z,7.30
2018-03-27T15:57:29.493Z,9.80
2018-03-27T16:00:00.307Z,9.80
2018-03-27T16:02:30.795Z,9.80
2018-03-27T16:05:01.251Z,9.60
2018-03-27T16:07:31.598Z,9.60
2018-03-27T16:10:02.012Z,8.50
2018-03-27T16:12:32.414Z,9.50
2018-03-27T16:15:03.862Z,9.60
2018-03-27T16:17:34.625Z,9.60
2018-03-27T16:20:05.508Z,9.60
2018-03-27T16:22:35.975Z,9.50
2018-03-27T16:25:06.444Z,9.60
2018-03-27T16:27:36.834Z,9.60
2018-03-27T16:30:08.088Z,9.50
2018-03-27T16:32:38.542Z,9.60
2018-03-27T16:35:11.688Z,9.60
2018-03-27T16:37:42.144Z,9.60
2018-03-27T16:40:13.494Z,9.50
2018-03-27T16:42:43.921Z,9.60
2018-03-27T16:45:14.538Z,9.60
2018-03-27T16:47:44.975Z,9.50
2018-03-27T16:50:15.826Z,9.50
2018-03-27T16:52:46.418Z,9.40
2018-03-27T16:55:17.172Z,9.40
2018-03-27T16:57:47.644Z,9.50
2018-03-27T17:00:18.135Z,9.50
2018-03-27T17:02:48.572Z,8.10
2018-03-27T17:05:19.085Z,9.40
2018-03-27T17:07:49.497Z,9.40
2018-03-27T17:10:19.572Z,9.30
2018-03-27T17:12:50.068Z,9.10
2018-03-27T17:15:20.665Z,9.10
2018-03-27T17:17:52.267Z,9.00
2018-03-27T17:20:22.983Z,8.90
2018-03-27T17:22:54.041Z,8.90
2018-03-27T17:25:26.921Z,8.80
2018-03-27T17:27:57.651Z,8.60
2018-03-27T17:30:28.859Z,8.60
2018-03-27T17:33:06.132Z,8.40
2018-03-27T17:35:40.924Z,8.40
2018-03-27T17:38:11.476Z,8.20
2018-03-27T17:40:41.891Z,8.20
2018-03-27T17:43:12.520Z,8.20
2018-03-27T17:45:43.356Z,8.10
2018-03-27T18:03:15.966Z,7.80
2018-03-27T18:05:46.757Z,7.60
2018-03-27T18:08:17.654Z,7.60
2018-03-27T18:10:48.632Z,7.60
2018-03-27T18:16:23.405Z,7.50
2018-03-27T18:24:56.430Z,7.50
2018-03-27T18:27:29.666Z,7.40
2018-03-27T18:30:00.090Z,7.40
2018-03-27T18:32:30.555Z,7.30
2018-03-27T18:35:01.330Z,7.30
2018-03-27T18:37:31.810Z,7.20
2018-03-27T18:40:02.566Z,7.20
2018-03-27T18:42:33.173Z,7.30
2018-03-27T18:45:03.631Z,7.30
2018-03-27T18:47:34.168Z,7.20
2018-03-27T18:50:04.641Z,7.30
2018-03-27T18:52:49.456Z,7.20
2018-03-27T18:55:20.187Z,7.30
2018-03-27T18:57:50.652Z,7.40
2018-03-27T19:00:21.145Z,7.30
2018-03-27T19:02:51.669Z,7.40
2018-03-27T19:05:24.098Z,7.40
2018-03-27T19:07:55.145Z,7.40
2018-03-27T19:10:27.102Z,7.50
2018-03-27T19:12:58.317Z,7.50
2018-03-27T19:15:29.626Z,7.50
2018-03-27T19:18:00.707Z,7.50
2018-03-27T19:20:31.631Z,7.50
2018-03-27T19:23:09.898Z,7.50
2018-03-27T19:26:11.334Z,7.50
2018-03-27T19:28:42.168Z,7.50
2018-03-27T19:31:12.941Z,7.50
2018-03-27T19:33:44.539Z,10.30
2018-03-27T19:36:15.785Z,7.50
2018-03-27T19:38:46.785Z,7.40
2018-03-27T19:41:18.218Z,6.20
2018-03-27T19:43:49.281Z,7.50
2018-03-27T19:46:19.996Z,7.50
2018-03-27T19:48:50.869Z,7.50
2018-03-27T19:51:21.625Z,7.50
2018-03-27T19:53:52.422Z,7.50
2018-03-27T19:56:23.335Z,7.40
2018-03-27T19:58:53.972Z,7.40
2018-03-27T20:01:24.872Z,7.30
2018-03-27T20:03:55.883Z,7.40
2018-03-27T20:06:27.006Z,7.40
2018-03-27T20:08:57.609Z,7.40
2018-03-27T20:11:28.441Z,7.40
2018-03-27T20:13:58.968Z,7.40
2018-03-27T20:16:29.551Z,7.30
2018-03-27T20:19:00.010Z,7.30
2018-03-27T20:21:30.475Z,7.30
2018-03-27T20:24:00.974Z,7.20
2018-03-27T20:26:33.283Z,7.20
2018-03-27T20:29:03.822Z,7.20
2018-03-27T20:46:36.897Z,7.10
2018-03-27T20:52:09.317Z,7.10
2018-03-27T20:54:40.228Z,7.10
2018-03-27T21:03:15.211Z,7.00
2018-03-27T21:05:46.584Z,7.10
2018-03-27T21:08:18.583Z,7.20
2018-03-27T21:10:49.987Z,7.20
2018-03-27T21:13:22.065Z,7.00
2018-03-27T21:15:53.039Z,7.20
2018-03-27T21:18:23.827Z,7.00
2018-03-27T21:20:54.309Z,7.10
2018-03-27T21:23:24.704Z,5.80
2018-03-27T21:25:56.040Z,7.10
2018-03-27T21:28:26.809Z,6.00
2018-03-27T21:30:57.508Z,7.10
2018-03-27T21:33:29.195Z,7.20
2018-03-27T21:35:59.839Z,7.10
2018-03-27T21:38:30.337Z,7.20
2018-03-27T21:41:00.744Z,7.10
2018-03-27T21:43:31.151Z,7.10
2018-03-27T21:46:01.837Z,7.10
2018-03-27T21:48:32.469Z,7.00
2018-03-27T21:51:02.890Z,7.10
2018-03-27T21:53:34.454Z,4.10
2018-03-27T21:56:06.013Z,7.00
2018-03-27T21:58:36.657Z,7.10
2018-03-27T22:01:06.697Z,7.10
2018-03-27T22:03:40.639Z,7.10
2018-03-27T22:06:11.380Z,7.10
2018-03-27T22:08:41.969Z,7.10
2018-03-27T22:11:12.508Z,7.10
2018-03-27T22:13:43.930Z,7.10
2018-03-27T22:16:14.509Z,7.10
2018-03-27T22:18:45.950Z,7.00
2018-03-27T22:21:17.499Z,7.10
2018-03-27T22:23:48.324Z,7.00
2018-03-27T22:26:18.849Z,7.10
2018-03-27T22:28:49.543Z,7.10
2018-03-27T22:31:20.021Z,7.10
2018-03-27T22:33:50.774Z,7.10
2018-03-27T22:36:21.314Z,7.10
2018-03-27T22:38:52.601Z,7.10
2018-03-27T22:41:23.184Z,7.10
2018-03-27T22:43:54.280Z,7.10
2018-03-27T22:46:24.912Z,7.10
2018-03-27T22:48:55.409Z,7.10
2018-03-27T22:51:25.532Z,7.10
2018-03-27T22:53:56.232Z,7.10
2018-03-27T22:56:26.858Z,7.00
2018-03-27T22:58:57.379Z,7.20
2018-03-27T23:01:27.876Z,7.20
2018-03-27T23:03:58.839Z,7.20
2018-03-27T23:06:30.126Z,7.20
2018-03-27T23:09:01.135Z,7.20
2018-03-27T23:11:31.774Z,7.20
2018-03-27T23:14:01.929Z,7.20
2018-03-27T23:16:32.459Z,7.10
2018-03-27T23:19:03.178Z,7.20
2018-03-27T23:21:33.691Z,7.20
2018-03-27T23:24:04.574Z,7.20
2018-03-27T23:26:35.178Z,7.20
2018-03-27T23:29:06.420Z,7.20
2018-03-27T23:31:37.014Z,7.20
2018-03-27T23:34:07.604Z,7.20
2018-03-27T23:36:38.654Z,7.20
2018-03-27T23:39:09.648Z,7.20
2018-03-27T23:41:40.490Z,7.20
2018-03-27T23:44:11.255Z,7.20
2018-03-27T23:46:41.939Z,7.30
2018-03-27T23:49:14.146Z,7.20
2018-03-27T23:51:45.712Z,7.30
2018-03-27T23:54:16.414Z,7.30
2018-03-27T23:56:47.330Z,7.30
2018-03-27T23:59:18.145Z,7.20
